Impacts METAR Board
IDs:

KMCO - Orlando Intl, FL, US

Updated at: 0300 UTC 21 Sep 2018
Potential Impact None Slight Moderate High
Time 20/15Z 20/16Z 20/17Z 20/18Z 20/19Z 20/20Z 20/21Z 20/22Z 20/23Z 21/00Z 21/01Z 21/02Z 21/03Z
Temp86 90 89 90 92 90 83 82 85 83 81 81 80
Dewpt76 74 73 73 74 73 75 77 74 75 76 76 76
Altim30.08 30.07 30.06 30.04 30.01 30.00 30.01 30.01 30.02 30.05 30.05 30.08 30.09
VIS10 10 10 10 10 10 10 10 10 10 10 10 10
CIG-- -- -- -- -- -- 90 -- -- -- -- -- --
CoverFEWSCTSCTSCTSCTSCTBKNSCTFEWFEWFEWFEWFEW
FltCatVFRVFRVFRVFRVFRVFRVFRVFRVFRVFRVFRVFRVFR
WX--------------------------
WDir0080360601002303608080609090
WSpd0 0 4 6 5 10 6 5 9 8 7 4 4
WGst-- -- -- -- -- -- -- -- -- -- -- -- --
Raw hourly METARs
KMCO 201453Z 00000KT 10SM FEW023 FEW250 30/24 A3008 RMK AO2 SLP183 T03000244 51017
KMCO 201553Z 00000KT 10SM SCT035 SCT250 32/23 A3007 RMK AO2 SLP181 T03220233
KMCO 201653Z 08004KT 10SM SCT040 SCT250 32/23 A3006 RMK AO2 SLP179 T03170228
KMCO 201753Z 36006KT 10SM SCT047CB SCT250 32/23 A3004 RMK AO2 LTG DSNT NE SLP169 CB SW STNRY CB DSNT NE-E W T03220228 10339 20250 58014
KMCO 201853Z 06005KT 10SM SCT050TCU SCT090 SCT250 33/23 A3001 RMK AO2 RAB17E29 SLP161 TCU E-S P0000 T03330233
KMCO 201953Z 10010KT 070V130 10SM SCT050CB SCT090 SCT250 32/23 A3000 RMK AO2 RAB13E25 SLP156 CB SW MOV SW P0000 T03220228
KMCO 202053Z 23006KT 10SM SCT050 BKN090 28/24 A3001 RMK AO2 LTG DSNT SW TSE07B14E49 SLP160 VCSH SW-W 60000 T02830239 55009
KMCO 202153Z 36005KT 10SM SCT042 SCT090 SCT150 28/25 A3001 RMK AO2 LTG DSNT S RAB05E27 SLP160 CB DSNT SW TCU DSNT S-SW P0003 T02780250
KMCO 202253Z 08009KT 10SM FEW050 FEW150 FEW250 29/23 A3002 RMK AO2 LTG DSNT S SLP163 T02940233
KMCO 202353Z 08008KT 10SM FEW060 FEW150 FEW250 28/24 A3005 RMK AO2 SLP174 60003 T02830239 10344 20267 53014
KMCO 210053Z 06007KT 10SM FEW050 FEW150 27/24 A3005 RMK AO2 SLP175 T02720244
KMCO 210153Z 09004KT 10SM FEW150 27/24 A3008 RMK AO2 SLP183 T02720244
KMCO 210253Z 09004KT 10SM FEW030 FEW250 27/24 A3009 RMK AO2 SLP188 T02670244 53015



Page loaded:  03:41 UTC  |   08:41 PM Pacific  |   09:41 PM Mountain  |   10:41 PM Central  |   11:41 PM Eastern

 

ADVISORIES

FORECASTS

FORECASTS

OBSERVATIONS

USER TOOLS

ABOUT US